Time,TemperatureF,DewpointF,PressureIn,WindDirection,WindDirectionDegrees,WindSpeedMPH,WindSpeedGustMPH,Humidity,HourlyPrecipIn,Conditions,Clouds,dailyrainin,SoftwareType,DateUTC
2013-04-03 00:02:00,50.0,47.2,30.02,SW,225,0.0,-999.0,90,-99.99,,,0.00,Acu-Link.com,2013-04-03 07:02:00,
2013-04-03 00:17:00,49.5,46.7,30.02,SW,225,0.0,-999.0,90,-99.99,,,0.00,Acu-Link.com,2013-04-03 07:17:00,
2013-04-03 00:32:00,49.5,47.0,30.03,SW,225,0.0,-999.0,91,-99.99,,,0.00,Acu-Link.com,2013-04-03 07:32:00,
2013-04-03 00:47:00,48.9,46.4,30.03,SW,225,0.0,-999.0,91,-99.99,,,0.00,Acu-Link.com,2013-04-03 07:47:00,
2013-04-03 01:02:00,49.1,46.6,30.03,SW,225,0.0,-999.0,91,-99.99,,,0.00,Acu-Link.com,2013-04-03 08:02:00,
2013-04-03 01:18:00,48.7,46.2,30.03,SW,225,0.0,-999.0,91,-99.99,,,0.00,Acu-Link.com,2013-04-03 08:18:00,
2013-04-03 01:33:00,48.4,45.9,30.03,SW,225,0.0,-999.0,91,-99.99,,,0.00,Acu-Link.com,2013-04-03 08:33:00,
2013-04-03 01:49:00,48.2,46.0,30.03,SW,225,0.0,-999.0,92,-99.99,,,0.00,Acu-Link.com,2013-04-03 08:49:00,
2013-04-03 02:04:00,48.2,46.0,30.03,SW,225,0.0,-999.0,92,-99.99,,,0.00,Acu-Link.com,2013-04-03 09:04:00,
2013-04-03 02:19:00,48.0,45.8,30.05,SW,225,0.0,-999.0,92,-99.99,,,0.00,Acu-Link.com,2013-04-03 09:19:00,
2013-04-03 02:34:00,47.5,45.3,30.04,SW,225,0.0,-999.0,92,-99.99,,,0.00,Acu-Link.com,2013-04-03 09:34:00,
2013-04-03 02:49:00,47.1,44.9,30.04,SW,225,0.0,-999.0,92,-99.99,,,0.00,Acu-Link.com,2013-04-03 09:49:00,
2013-04-03 03:04:00,47.5,45.6,30.03,SW,225,0.0,-999.0,93,-99.99,,,0.00,Acu-Link.com,2013-04-03 10:04:00,
2013-04-03 03:20:00,47.1,45.2,30.04,SW,225,0.0,-999.0,93,-99.99,,,0.00,Acu-Link.com,2013-04-03 10:20:00,
2013-04-03 03:35:00,46.2,44.3,30.04,SW,225,1.1,-999.0,93,-99.99,,,0.00,Acu-Link.com,2013-04-03 10:35:00,
2013-04-03 03:50:00,46.6,44.7,30.04,SW,225,0.0,-999.0,93,-99.99,,,0.00,Acu-Link.com,2013-04-03 10:50:00,
2013-04-03 04:05:00,47.7,45.8,30.04,SW,225,1.7,-999.0,93,-99.99,,,0.00,Acu-Link.com,2013-04-03 11:05:00,
2013-04-03 04:20:00,48.6,46.7,30.04,SW,225,0.0,-999.0,93,-99.99,,,0.00,Acu-Link.com,2013-04-03 11:20:00,
2013-04-03 05:37:00,50.9,49.2,30.05,SW,225,0.0,-999.0,94,-99.99,,,0.00,Acu-Link.com,2013-04-03 12:37:00,
2013-04-03 05:52:00,51.1,49.4,30.05,SW,225,0.0,-999.0,94,-99.99,,,0.00,Acu-Link.com,2013-04-03 12:52:00,
2013-04-03 06:07:00,51.4,49.7,30.06,SW,225,0.0,-999.0,94,-99.99,,,0.00,Acu-Link.com,2013-04-03 13:07:00,
2013-04-03 06:22:00,51.4,49.7,30.06,SW,225,0.0,-999.0,94,-99.99,,,0.00,Acu-Link.com,2013-04-03 13:22:00,
2013-04-03 06:37:00,51.4,49.7,30.06,SW,225,0.0,-999.0,94,-99.99,,,0.00,Acu-Link.com,2013-04-03 13:37:00,
2013-04-03 06:53:00,51.1,49.4,30.06,SW,225,0.0,-999.0,94,-99.99,,,0.00,Acu-Link.com,2013-04-03 13:53:00,
2013-04-03 07:08:00,50.9,49.2,30.06,SW,225,0.0,-999.0,94,-99.99,,,0.00,Acu-Link.com,2013-04-03 14:08:00,
2013-04-03 07:23:00,50.5,48.8,30.07,SW,225,0.0,-999.0,94,-99.99,,,0.00,Acu-Link.com,2013-04-03 14:23:00,
2013-04-03 07:38:00,50.5,48.8,30.07,SW,225,0.0,-999.0,94,-99.99,,,0.00,Acu-Link.com,2013-04-03 14:38:00,
2013-04-03 07:53:00,50.9,49.2,30.07,SW,225,0.0,-999.0,94,-99.99,,,0.00,Acu-Link.com,2013-04-03 14:53:00,
2013-04-03 08:09:00,51.8,50.1,30.07,SW,225,1.7,-999.0,94,-99.99,,,0.00,Acu-Link.com,2013-04-03 15:09:00,
2013-04-03 08:39:00,59.2,57.2,30.07,SW,225,1.1,-999.0,93,-99.99,,,0.00,Acu-Link.com,2013-04-03 15:39:00,
2013-04-03 08:54:00,62.4,58.8,30.06,SW,225,0.0,-999.0,88,-99.99,,,0.00,Acu-Link.com,2013-04-03 15:54:00,
2013-04-03 09:25:00,66.7,60.0,30.06,NNW,337,2.7,-999.0,79,-99.99,,,0.00,Acu-Link.com,2013-04-03 16:25:00,
2013-04-03 09:40:00,63.9,56.9,30.08,South,180,4.2,-999.0,78,-99.99,,,0.00,Acu-Link.com,2013-04-03 16:40:00,
2013-04-03 09:55:00,64.2,57.2,30.08,ESE,112,5.3,-999.0,78,-99.99,,,0.00,Acu-Link.com,2013-04-03 16:55:00,
2013-04-03 10:10:00,65.8,58.4,30.07,South,180,5.3,-999.0,77,-99.99,,,0.00,Acu-Link.com,2013-04-03 17:10:00,
2013-04-03 10:26:00,66.0,58.2,30.08,South,180,7.3,-999.0,76,-99.99,,,0.00,Acu-Link.com,2013-04-03 17:26:00,
2013-04-03 10:41:00,68.2,59.6,30.07,NNW,337,3.7,-999.0,74,-99.99,,,0.00,Acu-Link.com,2013-04-03 17:41:00,
2013-04-03 11:57:00,69.8,59.2,30.05,SSW,202,7.8,-999.0,69,-99.99,,,0.00,Acu-Link.com,2013-04-03 18:57:00,
2013-04-03 12:12:00,69.8,59.2,30.05,SW,225,8.9,-999.0,69,-99.99,,,0.00,Acu-Link.com,2013-04-03 19:12:00,
2013-04-03 12:27:00,70.2,59.5,30.05,South,180,5.8,-999.0,69,-99.99,,,0.00,Acu-Link.com,2013-04-03 19:27:00,
2013-04-03 12:42:00,70.0,58.9,30.05,South,180,6.3,-999.0,68,-99.99,,,0.00,Acu-Link.com,2013-04-03 19:42:00,
2013-04-03 12:58:00,68.9,57.9,30.05,SW,225,11.9,-999.0,68,-99.99,,,0.00,Acu-Link.com,2013-04-03 19:58:00,
2013-04-03 13:13:00,68.2,57.6,30.04,SW,225,8.3,-999.0,69,-99.99,,,0.00,Acu-Link.com,2013-04-03 20:13:00,
2013-04-03 13:28:00,67.6,57.1,30.05,SSW,202,5.3,-999.0,69,-99.99,,,0.00,Acu-Link.com,2013-04-03 20:28:00,
2013-04-03 13:58:00,69.4,58.8,30.03,SE,135,7.3,-999.0,69,-99.99,,,0.00,Acu-Link.com,2013-04-03 20:58:00,
2013-04-03 14:14:00,69.3,58.3,30.03,SSE,157,5.8,-999.0,68,-99.99,,,0.00,Acu-Link.com,2013-04-03 21:14:00,
2013-04-03 14:29:00,70.9,59.8,30.03,South,180,5.3,-999.0,68,-99.99,,,0.00,Acu-Link.com,2013-04-03 21:29:00,
2013-04-03 14:44:00,69.4,58.4,30.03,South,180,6.3,-999.0,68,-99.99,,,0.00,Acu-Link.com,2013-04-03 21:44:00,
2013-04-03 15:00:00,70.0,58.9,30.02,SE,135,4.7,-999.0,68,-99.99,,,0.00,Acu-Link.com,2013-04-03 22:00:00,
2013-04-03 15:15:00,69.6,58.1,30.01,South,180,4.2,-999.0,67,-99.99,,,0.00,Acu-Link.com,2013-04-03 22:15:00,
2013-04-03 15:30:00,70.5,59.0,29.99,SSE,157,5.8,-999.0,67,-99.99,,,0.00,Acu-Link.com,2013-04-03 22:30:00,
2013-04-03 15:45:00,71.1,59.2,29.99,ESE,112,2.2,-999.0,66,-99.99,,,0.00,Acu-Link.com,2013-04-03 22:45:00,
2013-04-03 16:00:00,73.0,60.5,29.98,SSW,202,3.7,-999.0,65,-99.99,,,0.00,Acu-Link.com,2013-04-03 23:00:00,
2013-04-03 16:16:00,73.0,60.1,29.98,SW,225,7.3,-999.0,64,-99.99,,,0.00,Acu-Link.com,2013-04-03 23:16:00,
2013-04-03 16:31:00,73.0,59.6,29.96,SSW,202,6.3,-999.0,63,-99.99,,,0.00,Acu-Link.com,2013-04-03 23:31:00,
2013-04-03 16:46:00,71.1,57.9,29.96,SSW,202,6.3,-999.0,63,-99.99,,,0.00,Acu-Link.com,2013-04-03 23:46:00,
2013-04-03 17:17:00,69.4,56.2,29.95,South,180,6.3,-999.0,63,-99.99,,,0.00,Acu-Link.com,2013-04-04 00:17:00,
2013-04-03 17:32:00,67.1,54.9,29.95,SSW,202,4.7,-999.0,65,-99.99,,,0.00,Acu-Link.com,2013-04-04 00:32:00,
2013-04-03 17:47:00,65.8,54.5,29.96,SSE,157,5.8,-999.0,67,-99.99,,,0.00,Acu-Link.com,2013-04-04 00:47:00,
2013-04-03 18:02:00,63.7,53.7,29.96,SSW,202,5.3,-999.0,70,-99.99,,,0.00,Acu-Link.com,2013-04-04 01:02:00,
2013-04-03 18:17:00,63.3,54.1,29.96,SSE,157,4.2,-999.0,72,-99.99,,,0.00,Acu-Link.com,2013-04-04 01:17:00,
2013-04-03 18:33:00,62.4,53.6,29.97,SSW,202,3.2,-999.0,73,-99.99,,,0.00,Acu-Link.com,2013-04-04 01:33:00,
2013-04-03 18:48:00,61.7,53.3,29.96,SW,225,2.7,-999.0,74,-99.99,,,0.00,Acu-Link.com,2013-04-04 01:48:00,
2013-04-03 19:03:00,61.0,53.4,29.98,SSW,202,3.2,-999.0,76,-99.99,,,0.00,Acu-Link.com,2013-04-04 02:03:00,
2013-04-03 19:49:00,58.5,53.0,30.00,South,180,4.7,-999.0,82,-99.99,,,0.00,Acu-Link.com,2013-04-04 02:49:00,
2013-04-03 20:04:00,58.1,52.6,30.01,SW,225,3.7,-999.0,82,-99.99,,,0.00,Acu-Link.com,2013-04-04 03:04:00,
2013-04-03 20:19:00,57.9,52.8,30.01,SW,225,2.7,-999.0,83,-99.99,,,0.00,Acu-Link.com,2013-04-04 03:19:00,
2013-04-03 20:34:00,57.7,52.9,30.00,SW,225,0.0,-999.0,84,-99.99,,,0.00,Acu-Link.com,2013-04-04 03:34:00,
2013-04-03 20:50:00,57.0,52.5,30.01,SSE,157,3.7,-999.0,85,-99.99,,,0.00,Acu-Link.com,2013-04-04 03:50:00,
2013-04-03 21:05:00,56.7,52.6,30.01,South,180,3.2,-999.0,86,-99.99,,,0.00,Acu-Link.com,2013-04-04 04:05:00,
2013-04-03 21:20:00,56.5,52.4,30.01,SSW,202,3.7,-999.0,86,-99.99,,,0.00,Acu-Link.com,2013-04-04 04:20:00,
2013-04-03 21:35:00,56.3,52.5,30.02,East,90,2.2,-999.0,87,-99.99,,,0.00,Acu-Link.com,2013-04-04 04:35:00,
2013-04-03 21:50:00,56.3,52.5,30.04,SSE,157,2.7,-999.0,87,-99.99,,,0.00,Acu-Link.com,2013-04-04 04:50:00,
2013-04-03 22:06:00,56.3,52.5,30.03,North,0,0.0,-999.0,87,-99.99,,,0.00,Acu-Link.com,2013-04-04 05:06:00,
2013-04-03 22:51:00,56.3,52.8,30.05,North,0,1.1,-999.0,88,-99.99,,,0.00,Acu-Link.com,2013-04-04 05:51:00,
2013-04-03 23:06:00,56.3,52.8,30.05,North,0,0.0,-999.0,88,-99.99,,,0.00,Acu-Link.com,2013-04-04 06:06:00,
2013-04-03 23:22:00,56.3,52.8,30.05,North,0,0.0,-999.0,88,-99.99,,,0.00,Acu-Link.com,2013-04-04 06:22:00,
2013-04-03 23:37:00,56.3,52.8,30.05,North,0,0.0,-999.0,88,-99.99,,,0.00,Acu-Link.com,2013-04-04 06:37:00,
2013-04-03 23:52:00,55.8,52.3,30.04,North,0,0.0,-999.0,88,-99.99,,,0.00,Acu-Link.com,2013-04-04 06:52:00,